• Join FlightAware (Why Join?)
  • Login
  • US Flag 
10:50PM EDT


 

Airport Tracker/Info


-or-


 

Live Flight TrackerFlight Track Log ✈ UAL139 ✈ 11-Feb-2014 ✈ KDEN - RJAA / NRT

Flight Track Log - Related Links

Times and Time Zones

All times are in EST time to prevent confusion due to time zone crossing. See the UAL139 flight status page for this flight to view local times or setup timezone preferences in your user account.

Time Position Orientation Groundspeed Altitude Reporting Facility
EST Latitude Longitude Course Direction KTS MPH feet Rate Location/Type
02:40PM 39.8408 -104.6984 269° West 128 147 5,400  Level FlightAware ADS-B
02:41PM 39.8409 -104.7188 271° West 191 220 5,400 960 Level FlightAware ADS-B
02:41PM 39.8414 -104.7400 272° West 198 228 6,000 2,160 Climbing FlightAware ADS-B (KBJC)
02:41PM 39.8436 -104.7637 277° West 204 235 6,800 2,100 Climbing FlightAware ADS-B (KBJC)
02:41PM 39.8460 -104.7712 293° West 206 237 7,000 2,820 Climbing FlightAware ADS-B
02:42PM 39.8547 -104.7880 304° West 203 234 7,800 2,880 Climbing FlightAware ADS-B (KEIK)
02:42PM 39.8641 -104.8061 304° West 193 222 8,700 2,280 Climbing FlightAware ADS-B (KEIK)
02:42PM 39.8712 -104.8207 302° West 200 230 9,200 1,140 Climbing FlightAware ADS-B (KBJC)
02:43PM 39.8788 -104.8364 302° West 221 254 9,300 600 Climbing FlightAware ADS-B
02:43PM 39.8915 -104.8629 302° West 252 290 9,600 1,440 Climbing FlightAware ADS-B
02:43PM 39.9067 -104.9015 297° West 270 311 10,500 1,260 Climbing FlightAware ADS-B (KEIK)
02:44PM 39.9114 -104.9573 276° West 315 362 10,800 1,080 Climbing FlightAware ADS-B (KBJC)
02:44PM 39.9159 -105.0177 276° West 339 390 11,600 2,280 Climbing FlightAware ADS-B (KBJC)
02:45PM 39.9232 -105.0995 277° West 344 396 13,500 2,640 Climbing FlightAware ADS-B (KEIK)
02:46PM 39.9284 -105.1558 277° West 351 404 14,900 2,640 Climbing FlightAware ADS-B (KBJC)
02:46PM 39.9360 -105.2409 277° West 349 402 16,600 2,880 Climbing FlightAware ADS-B
02:47PM 39.9434 -105.3212 277° West 343 395 18,800 2,640 Climbing FlightAware ADS-B
02:48PM 39.9470 -105.3603 277° West 347 399 20,500 2,220 Climbing FlightAware ADS-B
02:48PM 39.9572 -105.4821 276° West 356 410 22,100 2,160 Climbing FlightAware ADS-B
02:49PM 39.9663 -105.5879 276° West 358 412 23,600 2,340 Climbing FlightAware ADS-B (KEIK)
02:50PM 39.9721 -105.6541 276° West 342 394 25,400 1,740 Climbing FlightAware ADS-B (KEIK)
02:51PM 39.9730 -105.7856 271° West 359 413 26,100 960 Climbing FlightAware ADS-B (KEIK)
02:51PM 39.9722 -105.8214 268° West 370 426 26,400 660 Climbing FlightAware ADS-B
02:52PM 39.9751 -105.9294 272° West 386 444 26,800 840 Climbing FlightAware ADS-B (KEIK)
02:52PM 39.9784 -105.9882 274° West 392 451 27,500 1,200 Climbing FlightAware ADS-B
02:53PM 39.9848 -106.1062 274° West 403 464 28,400 1,020 Climbing FlightAware ADS-B (KBDG)
02:54PM 39.9903 -106.2070 274° West 413 475 29,100 1,020 Climbing FlightAware ADS-B
02:54PM 39.9906 -106.2130 274° West 420 483 29,900 1,140 Climbing FlightAware ADS-B
02:55PM 40.0215 -106.4636 279° West 422 486 31,200 1,320 Climbing FlightAware ADS-B (KEIK)
02:56PM 40.0494 -106.5023 313° West 419 482 31,700 840 Climbing FlightAware ADS-B
02:56PM 40.1015 -106.5695 315° West 411 473 32,000 300 Climbing FlightAware ADS-B (KEIK)
02:57PM 40.1551 -106.6383 316° Northwest 414 476 32,100 600 Climbing FlightAware ADS-B (KBDG)
02:57PM 40.1904 -106.6840 315° West 414 476 32,700 1,080 Climbing FlightAware ADS-B (KEIK)
02:58PM 40.2510 -106.7621 315° West 413 475 33,500 1,080 Climbing FlightAware ADS-B (KEIK)
02:59PM 40.3145 -106.8446 315° West 414 476 34,300 780 Climbing FlightAware ADS-B (KEIK)
03:00PM 40.3578 -106.9007 315° West 422 486 34,600 660 Climbing FlightAware ADS-B (KEIK)
03:00PM 40.4064 -106.9639 315° West 423 487 35,200 960 Climbing FlightAware ADS-B (KBDG)
03:01PM 40.4832 -107.0642 315° West 421 484 36,000 600 Climbing FlightAware ADS-B (KEIK)
03:01PM 40.5267 -107.1211 315° West 419 482 36,000  Level FlightAware ADS-B (KEIK)
03:02PM 40.5662 -107.1729 315° West 420 483 36,000  Level FlightAware ADS-B (KEIK)
03:03PM 40.6146 -107.2365 315° West 417 480 36,000  Level FlightAware ADS-B (KEIK)
03:03PM 40.6764 -107.3179 315° West 415 478 36,000  Level FlightAware ADS-B (KBDG)
03:04PM 40.7172 -107.3718 315° West 412 474 36,000  Level FlightAware ADS-B (KMTJ)
03:04PM 40.7620 -107.4308 315° West 410 472 36,000  Level FlightAware ADS-B (KBDG)
03:05PM 40.8294 -107.5203 315° West 405 466 36,000  Level FlightAware ADS-B (KBDG)
03:06PM 40.9114 -107.6294 315° West 398 458 36,000  Level FlightAware ADS-B (KBDG)
03:07PM 40.9923 -107.7374 315° West 396 456 36,000  Level FlightAware ADS-B (KBDG)
03:09PM 41.0907 -107.8694 315° West 393 452 36,000  Level FlightAware ADS-B (KBDG)
03:09PM 41.1377 -107.9324 315° West 397 457 36,000  Level FlightAware ADS-B (KBDG)
03:15PM 41.5801 -108.5345 315° West 393 452 36,000  Level FlightAware ADS-B (KBDG)
03:19PM 41.9006 -108.9783 314° West 402 463 36,000  Level FlightAware ADS-B (KBDG)
03:20PM 41.9946 -109.1103 314° West 399 459 36,000  Level FlightAware ADS-B (KBDG)
03:23PM 42.1583 -109.3407 314° West 393 452 36,000  Level FlightAware ADS-B (KBDG)
03:23PM 42.2161 -109.4261 314° West 393 452 36,000  Level Salt Lake Center
03:24PM 42.2867 -109.5267 314° West 389 448 36,000  Level Salt Lake Center
03:25PM 42.3692 -109.6444 313° West 388 447 36,000  Level Salt Lake Center
03:27PM 42.4411 -109.7475 313° West 391 450 36,000 60 Level Salt Lake Center
03:28PM 42.5239 -109.8667 313° West 391 450 36,200 360 Climbing Salt Lake Center
03:29PM 42.5978 -109.9714 314° West 398 458 36,800 780 Climbing Salt Lake Center
03:30PM 42.6811 -110.0939 313° West 396 456 37,800 540 Climbing Salt Lake Center
03:31PM 42.7581 -110.2053 313° West 397 457 38,000 60 Climbing Salt Lake Center
03:32PM 42.8294 -110.3089 313° West 393 452 38,000  Level Salt Lake Center
03:33PM 42.9011 -110.4156 313° West 397 457 38,000  Level Salt Lake Center
03:34PM 42.9839 -110.5369 313° West 392 451 38,000  Level Salt Lake Center
03:35PM 43.0572 -110.6406 314° West 395 455 38,000  Level Salt Lake Center
03:36PM 43.1392 -110.7614 313° West 388 447 38,000  Level Salt Lake Center
03:37PM 43.2081 -110.8647 312° West 384 442 38,000  Level Salt Lake Center
03:38PM 43.2778 -110.9681 313° West 385 443 38,000  Level Salt Lake Center
03:39PM 43.3581 -111.0906 312° West 384 442 38,000  Level Salt Lake Center
03:40PM 43.4264 -111.1917 313° West 378 435 38,000  Level Salt Lake Center
03:41PM 43.5050 -111.3097 313° West 375 432 38,000  Level Salt Lake Center
03:42PM 43.5717 -111.4119 312° West 374 430 38,000  Level Salt Lake Center
03:43PM 43.6486 -111.5300 312° West 371 427 38,000  Level Salt Lake Center
03:44PM 43.7156 -111.6308 313° West 370 426 38,000  Level Salt Lake Center
03:45PM 43.7822 -111.7347 312° West 375 432 38,000  Level Salt Lake Center
03:46PM 43.8611 -111.8550 312° West 375 432 38,000  Level Salt Lake Center
03:47PM 43.9258 -111.9569 311° West 372 428 38,000  Level Salt Lake Center
03:48PM 43.9922 -112.0597 312° West 373 429 38,000  Level Salt Lake Center
03:49PM 44.0678 -112.1772 312° West 365 420 38,000  Level Salt Lake Center
03:50PM 44.1275 -112.2881 307° West 371 427 38,000  Level Salt Lake Center
03:51PM 44.1919 -112.4194 304° West 369 425 38,000  Level Salt Lake Center
03:52PM 44.2486 -112.5325 305° West 372 428 38,000  Level Salt Lake Center
03:53PM 44.3042 -112.6458 304° West 370 426 38,000  Level Salt Lake Center
03:54PM 44.3686 -112.7794 304° West 370 426 38,000  Level Salt Lake Center
03:55PM 44.4242 -112.8936 304° West 370 426 38,000  Level Salt Lake Center
03:56PM 44.4883 -113.0264 304° West 368 423 38,000  Level Salt Lake Center
03:57PM 44.5417 -113.1389 304° West 363 418 38,000  Level Salt Lake Center
03:58PM 44.5936 -113.2450 305° West 348 400 38,000  Level Salt Lake Center
03:59PM 44.6536 -113.3725 304° West 350 403 38,000  Level Salt Lake Center
04:00PM 44.7067 -113.4867 303° West 361 415 38,000  Level Salt Lake Center
04:01PM 44.7703 -113.6164 305° West 361 415 38,000  Level Salt Lake Center
04:02PM 44.8236 -113.7267 304° West 357 411 38,000  Level Salt Lake Center
04:03PM 44.8761 -113.8367 304° West 355 409 38,000  Level Salt Lake Center
04:04PM 44.9386 -113.9731 303° West 356 410 38,000  Level Salt Lake Center
04:05PM 44.9931 -114.0881 304° West 354 407 38,000  Level Salt Lake Center
04:06PM 45.0461 -114.2033 303° West 352 405 38,000  Level Salt Lake Center
04:08PM 45.1000 -114.3200 303° West 355 409 38,000  Level Salt Lake Center
04:09PM 45.1547 -114.4392 303° West 361 415 38,000  Level Salt Lake Center
04:10PM 45.2103 -114.5581 304° West 363 418 38,000  Level Salt Lake Center
04:11PM 45.2628 -114.6744 303° West 355 409 38,000  Level Salt Lake Center
04:12PM 45.3164 -114.7939 303° West 359 413 38,000  Level Salt Lake Center
04:13PM 45.3822 -114.9378 303° West 363 418 38,000  Level Salt Lake Center
04:13PM 45.4036 -114.9856 303° West 361 415 38,000  Level Seattle Center
04:14PM 45.4583 -115.1083 302° West 366 421 38,000  Level Seattle Center
04:15PM 45.5133 -115.2303 303° West 367 422 38,000  Level Seattle Center
04:16PM 45.5675 -115.3536 302° West 367 422 38,000  Level Seattle Center
04:17PM 45.6314 -115.4975 302° West 362 417 38,000 -60 Level Seattle Center
04:18PM 45.6758 -115.5992 302° West 363 418 37,900  Descending Seattle Center
04:19PM 45.7294 -115.7225 302° West 365 420 38,000  Climbing Seattle Center
04:20PM 45.7836 -115.8436 303° West 364 419 37,900  Descending Seattle Center
04:21PM 45.8483 -115.9917 302° West 363 418 38,000  Climbing Seattle Center
04:22PM 45.9008 -116.1117 302° West 358 412 37,900  Descending Seattle Center
04:23PM 45.9533 -116.2333 302° West 357 411 38,000  Climbing Seattle Center
04:24PM 46.0053 -116.3567 301° West 360 414 38,000 -60 Level Seattle Center
04:25PM 46.0575 -116.4769 302° West 357 411 37,900  Descending Seattle Center
04:26PM 46.1094 -116.5997 301° West 358 412 38,000  Climbing Seattle Center
04:27PM 46.1617 -116.7222 302° West 358 412 37,900 -60 Descending Seattle Center
04:28PM 46.2131 -116.8461 301° West 360 414 37,900  Level Seattle Center
04:29PM 46.2664 -116.9703 302° West 364 419 38,000  Climbing Seattle Center
04:30PM 46.3181 -117.0942 301° West 360 414 37,900  Descending Seattle Center
04:31PM 46.3686 -117.2156 301° West 354 407 38,000  Climbing Seattle Center
04:32PM 46.4194 -117.3372 301° West 352 405 37,900  Descending Seattle Center
04:33PM 46.4689 -117.4572 301° West 347 399 38,000 60 Climbing Seattle Center
04:34PM 46.5203 -117.5811 301° West 356 410 38,100 180 Climbing Seattle Center
04:35PM 46.5833 -117.7364 301° West 369 425 38,400 240 Climbing Seattle Center
04:37PM 46.6372 -117.8686 301° West 376 433 38,700 240 Climbing Seattle Center
04:38PM 46.6906 -118.0014 300° West 380 437 38,900 120 Climbing Seattle Center
04:39PM 46.7439 -118.1317 301° West 375 432 39,000  Climbing Seattle Center
04:44PM 47.0236 -118.8350 301° West 369 425 39,000  Level FlightAware ADS-B
04:45PM 47.0648 -118.9400 300° West 367 422 39,000  Level FlightAware ADS-B
04:45PM 47.0906 -119.0060 300° West 366 421 39,000  Level FlightAware ADS-B
04:46PM 47.1171 -119.0750 299° West 365 420 39,000  Level FlightAware ADS-B
04:46PM 47.1431 -119.1420 300° West 366 421 39,000  Level FlightAware ADS-B
04:47PM 47.1688 -119.2080 300° West 369 425 39,000  Level FlightAware ADS-B
04:47PM 47.1941 -119.2730 300° West 369 425 39,000  Level FlightAware ADS-B
04:48PM 47.2126 -119.3180 301° West 367 422 39,000  Level FlightAware ADS-B
04:48PM 47.2419 -119.3760 307° West 367 422 39,000  Level FlightAware ADS-B
04:49PM 47.2730 -119.4360 307° West 365 420 39,000  Level FlightAware ADS-B
04:49PM 47.3042 -119.4960 307° West 363 418 39,000  Level FlightAware ADS-B
04:50PM 47.3359 -119.5570 307° West 365 420 39,000  Level FlightAware ADS-B
04:50PM 47.3672 -119.6180 307° West 368 423 39,000  Level FlightAware ADS-B
04:51PM 47.3980 -119.6780 307° West 368 423 39,000  Level FlightAware ADS-B
04:51PM 47.4287 -119.7370 308° West 365 420 39,000  Level FlightAware ADS-B
04:52PM 47.4594 -119.7970 307° West 362 417 39,000  Level FlightAware ADS-B
04:52PM 47.4899 -119.8570 307° West 361 415 39,000  Level FlightAware ADS-B
04:53PM 47.5208 -119.9170 307° West 361 415 39,000  Level FlightAware ADS-B
04:53PM 47.5509 -119.9760 307° West 361 415 39,000  Level FlightAware ADS-B
04:54PM 47.5812 -120.0360 307° West 363 418 39,000  Level FlightAware ADS-B
04:54PM 47.6116 -120.0950 307° West 364 419 39,000  Level FlightAware ADS-B
04:55PM 47.6460 -120.1630 307° West 365 420 39,000  Level FlightAware ADS-B
04:55PM 47.6245 -120.1209 127° Southeast 365 420 39,000  Level FlightAware ADS-B (CYWH)
04:55PM 47.6763 -120.2230 307° West 365 420 39,000  Level FlightAware ADS-B
04:56PM 47.7068 -120.2840 307° West 364 419 39,000  Level FlightAware ADS-B
04:56PM 47.7212 -120.3123 307° West 364 419 39,000  Level FlightAware ADS-B (CYWH)
04:56PM 47.7373 -120.3440 307° West 365 420 39,000  Level FlightAware ADS-B
04:57PM 47.7678 -120.4050 307° West 367 422 39,000  Level FlightAware ADS-B
04:57PM 47.7813 -120.4321 307° West 367 422 39,000  Level FlightAware ADS-B (CYWH)
04:57PM 47.7991 -120.4680 306° West 367 422 39,000  Level FlightAware ADS-B
04:58PM 47.8301 -120.5290 307° West 367 422 39,000  Level FlightAware ADS-B
04:58PM 47.8390 -120.5473 306° West 368 423 39,000  Level FlightAware ADS-B (CYWH)
04:58PM 47.8607 -120.5910 307° West 370 426 39,000  Level FlightAware ADS-B
04:59PM 47.8829 -120.6354 307° West 370 426 39,000  Level FlightAware ADS-B (CYWH)
04:59PM 47.8919 -120.6530 307° West 371 427 39,000  Level FlightAware ADS-B
04:59PM 47.9230 -120.7160 306° West 369 425 39,000  Level FlightAware ADS-B
04:59PM 47.9220 -120.7139 126° Southeast 369 425 39,000  Level FlightAware ADS-B (CYWH)
05:00PM 47.9537 -120.7780 306° West 370 426 39,000  Level FlightAware ADS-B
05:00PM 47.9847 -120.8410 306° West 371 427 39,000  Level FlightAware ADS-B
05:01PM 48.0157 -120.9040 306° West 373 429 39,000  Level FlightAware ADS-B
05:01PM 48.0462 -120.9660 306° West 372 428 39,000  Level FlightAware ADS-B
05:02PM 48.0601 -120.9937 307° West 372 428 39,000  Level FlightAware ADS-B (CYWH)
05:02PM 48.0769 -121.0280 306° West 372 428 39,000  Level FlightAware ADS-B
05:02PM 48.1050 -121.0855 306° West 371 427 39,000  Level FlightAware ADS-B (CYWH)
05:02PM 48.1073 -121.0900 307° West 371 427 39,000  Level FlightAware ADS-B
05:03PM 48.1380 -121.1530 306° West 371 427 39,000  Level FlightAware ADS-B
05:03PM 48.1463 -121.1698 306° West 371 427 39,000  Level FlightAware ADS-B (CYWH)
05:03PM 48.1682 -121.2150 306° West 370 426 39,000  Level FlightAware ADS-B
05:04PM 48.1844 -121.2484 306° West 369 425 39,000  Level FlightAware ADS-B (CYWH)
05:04PM 48.1993 -121.2790 306° West 369 425 39,000  Level FlightAware ADS-B
05:04PM 48.2196 -121.3208 306° West 368 423 39,000  Level FlightAware ADS-B (CYWH)
05:04PM 48.2294 -121.3410 306° West 368 423 39,000  Level FlightAware ADS-B
05:05PM 48.2601 -121.4040 306° West 367 422 39,000  Level FlightAware ADS-B
05:05PM 48.2668 -121.4183 305° West 368 423 39,000  Level FlightAware ADS-B (CYWH)
05:05PM 48.2902 -121.4670 306° West 368 423 39,000  Level FlightAware ADS-B
05:06PM 48.3070 -121.5013 306° West 369 425 39,000  Level FlightAware ADS-B (CYWH)
05:06PM 48.3205 -121.5290 306° West 370 426 39,000  Level FlightAware ADS-B
05:06PM 48.3409 -121.5719 306° West 371 427 39,000  Level FlightAware ADS-B (CYWH)
05:06PM 48.3507 -121.5920 306° West 371 427 39,000  Level FlightAware ADS-B
05:07PM 48.3810 -121.6550 306° West 372 428 39,000  Level FlightAware ADS-B
05:07PM 48.3874 -121.6688 305° West 373 429 39,000  Level FlightAware ADS-B (CYWH)
05:07PM 48.4116 -121.7190 306° West 374 430 39,000  Level FlightAware ADS-B
05:08PM 48.4265 -121.7505 305° West 374 430 39,000  Level FlightAware ADS-B (CYWH)
05:08PM 48.4420 -121.7830 306° West 374 430 39,000  Level FlightAware ADS-B
05:08PM 48.4649 -121.8310 306° West 374 430 39,000  Level FlightAware ADS-B (CYWH)
05:08PM 48.4721 -121.8460 306° West 374 430 39,000  Level FlightAware ADS-B
05:09PM 48.5026 -121.9100 306° West 374 430 39,000  Level FlightAware ADS-B
05:09PM 48.5076 -121.9210 305° West 374 430 39,000  Level FlightAware ADS-B (CYWH)
05:09PM 48.5332 -121.9750 306° West 374 430 39,000  Level FlightAware ADS-B
05:09PM 48.5415 -121.9924 306° West 373 429 39,000  Level FlightAware ADS-B (CYCD)
05:10PM 48.5634 -122.0390 305° West 373 429 39,000  Level FlightAware ADS-B
05:10PM 48.5680 -122.0486 306° West 373 429 39,000  Level FlightAware ADS-B (EPKK / KRK)
05:10PM 48.5933 -122.1020 306° West 373 429 39,000  Level FlightAware ADS-B
05:11PM 48.6055 -122.1282 305° West 373 429 39,000  Level FlightAware ADS-B (CYWH)
05:11PM 48.6233 -122.1660 305° West 374 430 39,000  Level FlightAware ADS-B
05:11PM 48.6447 -122.2115 305° West 375 432 39,000  Level FlightAware ADS-B (CYWH)
05:11PM 48.6537 -122.2310 305° West 375 432 39,000  Level FlightAware ADS-B
05:12PM 48.6789 -122.2844 306° West 375 432 39,000  Level FlightAware ADS-B (EPKK / KRK)
05:12PM 48.6841 -122.2960 304° West 375 432 39,000  Level FlightAware ADS-B
05:12PM 48.7145 -122.3610 305° West 376 433 39,000  Level FlightAware ADS-B
05:13PM 48.7217 -122.3761 306° West 375 432 39,000  Level FlightAware ADS-B (CYWH)
05:13PM 48.7445 -122.4250 305° West 375 432 39,000  Level FlightAware ADS-B
05:13PM 48.7557 -122.4490 305° West 375 432 39,000  Level FlightAware ADS-B (EPKK / KRK)
05:13PM 48.7749 -122.4900 305° West 376 433 39,000  Level FlightAware ADS-B
05:14PM 48.8034 -122.5519 305° West 377 434 39,000  Level FlightAware ADS-B (CYWH)
05:14PM 48.8054 -122.5560 306° West 376 433 39,000  Level FlightAware ADS-B
05:14PM 48.8356 -122.6210 305° West 377 434 39,000  Level FlightAware ADS-B
05:15PM 48.8418 -122.6349 304° West 380 437 39,000  Level FlightAware ADS-B (CYWH)
05:15PM 48.8664 -122.6880 305° West 382 440 39,000  Level FlightAware ADS-B
05:15PM 48.8818 -122.7214 305° West 383 441 39,000  Level FlightAware ADS-B (CYWH)
05:15PM 48.8970 -122.7540 305° West 384 442 39,000  Level FlightAware ADS-B
05:16PM 48.9156 -122.7951 305° West 385 443 39,000  Level FlightAware ADS-B (EPKK / KRK)
05:16PM 48.9281 -122.8220 305° West 385 443 39,000  Level FlightAware ADS-B
05:16PM 48.9557 -122.8824 305° West 386 444 39,000  Level FlightAware ADS-B (EPKK / KRK)
05:16PM 48.9588 -122.8890 306° West 385 443 39,000  Level FlightAware ADS-B
05:17PM 48.9982 -122.9755 305° West 387 445 39,000  Level FlightAware ADS-B (EPKK / KRK)
05:17PM 49.0151 -123.0130 304° West 386 444 39,000  Level FlightAware ADS-B
05:18PM 49.0442 -123.0764 305° West 387 445 39,000  Level FlightAware ADS-B (EPKK / KRK)
05:18PM 49.0765 -123.1480 305° West 387 445 39,000  Level FlightAware ADS-B
05:19PM 49.0864 -123.1695 305° West 386 444 39,000  Level FlightAware ADS-B (EPKK / KRK)
05:19PM 49.0905 -123.1790 303° West 386 444 39,000  Level FlightAware ADS-B
05:19PM 49.1186 -123.2490 302° West 385 443 39,000  Level FlightAware ADS-B
05:19PM 49.1199 -123.2520 304° West 384 442 39,000  Level FlightAware ADS-B (CYWH)
05:20PM 49.1468 -123.3190 302° West 384 442 39,000  Level FlightAware ADS-B
05:20PM 49.1587 -123.3484 302° West 384 442 39,000  Level FlightAware ADS-B (CYWH)
05:20PM 49.1774 -123.3940 302° West 385 443 39,000  Level FlightAware ADS-B
05:21PM 49.1994 -123.4478 302° West 385 443 39,000  Level FlightAware ADS-B (CYWH)
05:21PM 49.2277 -123.5169 302° West 385 443 39,000  Level FlightAware ADS-B (EPKK / KRK)
05:21PM 49.2431 -123.5550 302° West 386 444 39,000  Level FlightAware ADS-B
05:22PM 49.2648 -123.6150 299° West 383 441 39,000  Level FlightAware ADS-B
05:22PM 49.2870 -123.6890 295° West 382 440 39,000  Level FlightAware ADS-B
05:22PM 49.2966 -123.7215 294° West 383 441 39,000  Level FlightAware ADS-B (EPKK / KRK)
05:23PM 49.3089 -123.7630 294° West 382 440 39,000  Level FlightAware ADS-B
05:23PM 49.3284 -123.8287 294° West 382 440 39,000  Level FlightAware ADS-B (EPKK / KRK)
05:23PM 49.3314 -123.8390 294° West 382 440 39,000  Level FlightAware ADS-B
05:24PM 49.3534 -123.9130 295° West 383 441 39,000  Level FlightAware ADS-B
05:24PM 49.3575 -123.9273 294° West 384 442 39,000  Level FlightAware ADS-B (EPKK / KRK)
05:25PM 49.3902 -124.0387 294° West 385 443 39,000  Level FlightAware ADS-B (EPKK / KRK)
05:25PM 49.4182 -124.1345 294° West 385 443 39,000  Level FlightAware ADS-B (EPKK / KRK)
05:26PM 49.4507 -124.2463 294° West 384 442 39,000 -540 Level FlightAware ADS-B (EPKK / KRK)
05:27PM 49.4824 -124.3557 294° West 381 438 38,300 -720 Descending FlightAware ADS-B (EPKK / KRK)
05:27PM 49.5113 -124.4560 294° West 375 432 38,000 -240 Descending FlightAware ADS-B (EPKK / KRK)
05:28PM 49.5353 -124.5398 294° West 376 433 38,000  Level FlightAware ADS-B (EPKK / KRK)
05:29PM 49.5708 -124.6636 294° West 378 435 38,000  Level FlightAware ADS-B (EPKK / KRK)
05:30PM 49.5935 -124.7431 294° West 378 435 38,000  Level FlightAware ADS-B (EPKK / KRK)
05:31PM 49.6468 -124.9313 294° West 377 434 38,000  Level FlightAware ADS-B (EPKK / KRK)
05:33PM 49.7114 -125.1620 293° West 378 435 38,000  Level FlightAware ADS-B (EPKK / KRK)
05:34PM 49.7804 -125.4094 293° West 380 437 38,000  Level FlightAware ADS-B (EPKK / KRK)
05:35PM 49.8000 -125.5500 293° West 380 437 38,000  Level Vancouver Center
05:36PM 49.8333 -125.6833 291° West 380 437 38,000  Level Vancouver Center
05:37PM 49.8833 -125.8500 295° West 380 437 38,000  Level Vancouver Center
05:38PM 49.9167 -126.0000 289° West 390 449 38,000  Level Vancouver Center
05:39PM 49.9667 -126.1667 295° West 390 449 38,000  Level Vancouver Center
05:40PM 50.0167 -126.3167 297° West 380 437 38,000  Level Vancouver Center
05:41PM 50.0500 -126.4500 291° West 380 437 38,000  Level Vancouver Center
05:42PM 50.0833 -126.6333 286° West 380 437 38,000  Level Vancouver Center
05:43PM 50.1333 -126.7667 300° West 390 449 38,000  Level Vancouver Center
05:44PM 50.1667 -126.9333 287° West 390 449 38,000  Level Vancouver Center
05:45PM 50.2167 -127.0833 298° West 390 449 38,000  Level Vancouver Center
05:46PM 50.2500 -127.2500 287° West 390 449 38,000  Level Vancouver Center
05:47PM 50.2833 -127.4000 289° West 390 449 38,000  Level Vancouver Center
05:48PM 50.3333 -127.5333 300° West 380 437 38,000  Level Vancouver Center
05:49PM 50.3833 -127.7000 295° West 390 449 38,000  Level Vancouver Center
05:50PM 50.4167 -127.8667 287° West 390 449 38,000  Level Vancouver Center
05:51PM 50.4500 -128.0167 289° West 410 472 38,000  Level Vancouver Center
05:52PM 50.4833 -128.2167 285° West 400 460 38,000  Level Vancouver Center
05:53PM 50.5167 -128.3500 292° West 400 460 38,000  Level Vancouver Center
05:54PM 50.5667 -128.5333 293° West 400 460 38,000  Level Vancouver Center
05:55PM 50.6000 -128.7000 288° West 400 460 38,000  Level Vancouver Center
05:56PM 50.6500 -128.8500 298° West 400 460 38,000  Level Vancouver Center
05:57PM 50.7000 -129.0167 295° West 410 472 38,000  Level Vancouver Center
05:58PM 50.7167 -129.1833 279° West 400 460 38,000  Level Vancouver Center
05:59PM 50.7667 -129.3500 295° West 410 472 38,000  Level Vancouver Center
06:00PM 50.8000 -129.5167 288° West 410 472 38,000  Level Vancouver Center
06:01PM 50.8500 -129.7000 293° West 410 472 38,000  Level Vancouver Center
06:02PM 50.8833 -129.8667 288° West 410 472 38,000  Level Vancouver Center
06:03PM 50.9167 -130.0333 288° West 420 483 38,000  Level Vancouver Center
06:04PM 50.9500 -130.2167 286° West 420 483 38,000  Level Vancouver Center
06:05PM 50.9833 -130.3833 288° West 420 483 38,000  Level Vancouver Center
06:06PM 51.0333 -130.5667 294° West 420 483 38,000  Level Vancouver Center
06:07PM 51.0667 -130.7333 288° West 420 483 38,000  Level Vancouver Center
06:08PM 51.1167 -130.9000 296° West 420 483 38,000  Level Vancouver Center
06:09PM 51.1500 -131.1000 285° West 420 483 38,000  Level Vancouver Center
06:10PM 51.1833 -131.2667 288° West 420 483 38,000  Level Vancouver Center
06:11PM 51.2333 -131.4333 296° West 410 472 38,000  Level Vancouver Center
06:12PM 51.2500 -131.6000 279° West 420 483 38,000  Level Vancouver Center
06:13PM 51.2833 -131.7833 286° West 430 495 38,000  Level Vancouver Center
06:14PM 51.3333 -131.9833 292° West 430 495 38,000  Level Vancouver Center
06:15PM 51.3667 -132.1833 285° West 440 506 38,000  Level Vancouver Center
06:16PM 51.4000 -132.3500 288° West 430 495 38,000  Level Vancouver Center
06:17PM 51.4333 -132.5167 288° West 440 506 38,000  Level Vancouver Center
06:18PM 51.4667 -132.7167 285° West 430 495 38,000  Level Vancouver Center
06:19PM 51.5167 -132.9000 294° West 430 495 38,000  Level Vancouver Center
06:20PM 51.5500 -133.1000 285° West 440 506 38,000  Level Vancouver Center
06:21PM 51.5833 -133.2667 288° West 430 495 38,000  Level Vancouver Center
06:22PM 51.6167 -133.4667 285° West 440 506 38,000  Level Vancouver Center
06:23PM 51.6500 -133.6667 285° West 440 506 38,000  Level Vancouver Center
06:24PM 51.6833 -133.8667 285° West 450 518 38,000  Level Vancouver Center
06:25PM 51.7167 -134.0333 288° West 450 518 38,000  Level Vancouver Center
06:26PM 51.7500 -134.2333 285° West 450 518 38,000  Level Vancouver Center
06:27PM 51.8000 -134.4333 292° West 450 518 38,000  Level Vancouver Center
06:28PM 51.8333 -134.6333 285° West 460 529 38,000  Level Vancouver Center
06:29PM 51.8667 -134.8333 285° West 460 529 38,000  Level Vancouver Center
06:30PM 51.9000 -135.0333 285° West 450 518 38,000  Level Vancouver Center
06:31PM 51.9333 -135.2333 285° West 440 506 38,000  Level Vancouver Center
06:32PM 51.9667 -135.4000 288° West 450 518 38,000  Level Vancouver Center
06:33PM 52.0167 -135.5000 292° West 460 529 38,000  Level Oakland Oceanic (ODAPS)
06:34PM 52.0500 -135.8167 292° West 460 529 38,000  Level Vancouver Center
06:35PM 52.0833 -135.9833 288° West 460 529 38,000  Level Vancouver Center
06:36PM 52.1333 -136.1833 292° West 450 518 38,000  Level Vancouver Center
06:37PM 52.1833 -136.3667 294° West 460 529 38,000  Level Vancouver Center
06:38PM 52.2333 -136.5667 292° West 460 529 38,000  Level Vancouver Center
06:39PM 52.2667 -136.7833 284° West 470 541 38,000  Level Vancouver Center
06:46PM 52.6333 -138.2167 289° West 468 539 38,000  Level Oakland Oceanic (ODAPS)
06:55PM 53.0000 -140.0000 284° West 474 545 38,000  Level Oakland Oceanic (ODAPS)
07:02PM 53.1833 -141.3500 283° West 478 550 38,800 60 Climbing Oakland Oceanic (ODAPS)
07:14PM 53.5167 -144.0667 280° West 483 556 40,000  Climbing Oakland Oceanic (ODAPS)
07:28PM 53.8000 -147.1333 278° West 486 559 40,000  Level Oakland Oceanic (ODAPS)
07:41PM 54.0000 -150.0000 256° West 497 572 40,000  Level Oakland Oceanic (ODAPS)
07:42PM 53.9500 -150.2833 255° West 499 574 40,000  Level Oakland Oceanic (ODAPS)
07:56PM 53.4500 -153.3500 253° West 501 577 40,000  Level Oakland Oceanic (ODAPS)
08:10PM 52.8333 -156.4000 251° West 505 581 40,000  Level Oakland Oceanic (ODAPS)
08:23PM 52.1500 -159.3833 249° West 507 583 40,000  Level Oakland Oceanic (ODAPS)
08:27PM 52.0000 -160.0000 256° West 508 585 40,000  Level Oakland Oceanic (ODAPS)
08:40PM 51.6167 -162.4000 254° West 510 587 40,000  Level Oakland Oceanic (ODAPS)
08:52PM 51.0500 -165.3833 252° West 505 581 40,000  Level Oakland Oceanic (ODAPS)
09:06PM 50.4167 -168.2667 250° West 502 578 40,000  Level Oakland Oceanic (ODAPS)
09:15PM 49.9500 -170.2167 249° West 495 570 40,000  Level Oakland Oceanic (ODAPS)
09:19PM 49.7333 -171.0833 249° West 507 583 40,000  Level Oakland Oceanic (ODAPS)
09:34PM 48.9833 -173.8500 247° West 510 587 40,000  Level Oakland Oceanic (ODAPS)
09:47PM 48.1833 -176.5333 244° Southwest 514 592 40,000  Level Oakland Oceanic (ODAPS)
10:01PM 47.3167 -179.1167 243° Southwest 503 579 40,000  Level Oakland Oceanic (ODAPS)
10:05PM 47.0000 180.0000 244° Southwest 493 567 40,000  Level Oakland Oceanic (ODAPS)
10:14PM 46.4500 178.4000 243° Southwest 486 559 40,000  Level Oakland Oceanic (ODAPS)
10:28PM 45.5667 175.9667 241° Southwest 490 564 40,000  Level Oakland Oceanic (ODAPS)
10:42PM 44.6167 173.6333 240° Southwest 490 564 40,000  Level Oakland Oceanic (ODAPS)
10:56PM 43.6667 171.4167 238° Southwest 464 534 40,000  Level Oakland Oceanic (ODAPS)
11:06PM 43.0000 170.0000 245° Southwest 453 521 40,000  Level Oakland Oceanic (ODAPS)
11:10PM 42.7833 169.3500 245° Southwest 455 524 40,000  Level Oakland Oceanic (ODAPS)
11:24PM 42.0000 167.1500 243° Southwest 460 529 40,000  Level Oakland Oceanic (ODAPS)
11:25PM 41.9659 167.0621 243° Southwest 455 524 40,000  Level FlightAware Transoceanic
11:26PM 41.9098 166.9117 243° Southwest 455 524 40,000  Level FlightAware Transoceanic
11:27PM 41.8535 166.7615 243° Southwest 455 524 40,000  Level FlightAware Transoceanic
11:28PM 41.7970 166.6116 243° Southwest 455 524 40,000  Level FlightAware Transoceanic
11:29PM 41.7403 166.4620 243° Southwest 455 524 40,000  Level FlightAware Transoceanic
11:30PM 41.6569 166.2399 243° Southwest 460 529 40,000  Level FlightAware Transoceanic
11:31PM 41.5990 166.0892 243° Southwest 460 529 40,000  Level FlightAware Transoceanic
11:32PM 41.5410 165.9387 243° Southwest 460 529 40,000  Level FlightAware Transoceanic
11:33PM 41.4827 165.7885 243° Southwest 460 529 40,000  Level FlightAware Transoceanic
11:34PM 41.4243 165.6386 242° Southwest 460 529 40,000  Level FlightAware Transoceanic
11:35PM 41.3656 165.4889 242° Southwest 460 529 40,000  Level FlightAware Transoceanic
11:36PM 41.3067 165.3395 242° Southwest 460 529 40,000  Level FlightAware Transoceanic
11:37PM 41.2477 165.1904 242° Southwest 460 529 40,000  Level FlightAware Transoceanic
11:38PM 41.1885 165.0416 242° Southwest 460 529 40,000  Level FlightAware Transoceanic
11:39PM 41.1290 164.8930 242° Southwest 460 529 40,000  Level FlightAware Transoceanic
11:40PM 41.0694 164.7447 242° Southwest 460 529 40,000  Level FlightAware Transoceanic
11:41PM 41.0096 164.5967 242° Southwest 460 529 40,000  Level FlightAware Transoceanic
11:42PM 40.9496 164.4489 242° Southwest 460 529 40,000  Level FlightAware Transoceanic
11:43PM 40.8894 164.3014 242° Southwest 460 529 40,000  Level FlightAware Transoceanic
11:44PM 40.8291 164.1542 241° Southwest 460 529 40,000  Level FlightAware Transoceanic
11:45PM 40.7685 164.0072 241° Southwest 460 529 40,000  Level FlightAware Transoceanic
11:46PM 40.7078 163.8605 241° Southwest 460 529 40,000  Level FlightAware Transoceanic
11:47PM 40.6468 163.7141 241° Southwest 460 529 40,000  Level FlightAware Transoceanic
11:48PM 40.5857 163.5679 241° Southwest 460 529 40,000  Level FlightAware Transoceanic
11:49PM 40.5244 163.4220 241° Southwest 460 529 40,000  Level FlightAware Transoceanic
11:50PM 40.4629 163.2764 241° Southwest 460 529 40,000  Level FlightAware Transoceanic
11:51PM 40.4013 163.1310 241° Southwest 460 529 40,000  Level FlightAware Transoceanic
11:52PM 40.3394 162.9859 241° Southwest 460 529 40,000  Level FlightAware Transoceanic
11:53PM 40.2774 162.8411 241° Southwest 460 529 40,000  Level FlightAware Transoceanic
11:54PM 40.2152 162.6966 241° Southwest 460 529 40,000  Level FlightAware Transoceanic
11:55PM 40.1528 162.5523 240° Southwest 460 529 40,000  Level FlightAware Transoceanic
11:56PM 40.0902 162.4082 240° Southwest 460 529 40,000  Level FlightAware Transoceanic
11:57PM 40.0275 162.2645 240° Southwest 460 529 40,000  Level FlightAware Transoceanic
11:58PM 39.9646 162.1210 240° Southwest 460 529 40,000  Level FlightAware Transoceanic
11:59PM 39.9015 161.9778 240° Southwest 460 529 40,000  Level FlightAware Transoceanic
12:00AM 39.8382 161.8348 240° Southwest 460 529 40,000  Level FlightAware Transoceanic
12:01AM 39.7748 161.6921 240° Southwest 460 529 40,000  Level FlightAware Transoceanic
12:02AM 39.7112 161.5496 240° Southwest 460 529 40,000  Level FlightAware Transoceanic
12:03AM 39.6474 161.4074 240° Southwest 460 529 40,000  Level FlightAware Transoceanic
12:04AM 39.5834 161.2655 240° Southwest 460 529 40,000  Level FlightAware Transoceanic
12:05AM 39.5192 161.1239 240° Southwest 460 529 40,000  Level FlightAware Transoceanic
12:06AM 39.4549 160.9825 239° Southwest 460 529 40,000  Level FlightAware Transoceanic
12:07AM 39.3904 160.8413 239° Southwest 460 529 40,000  Level FlightAware Transoceanic
12:08AM 39.3258 160.7005 239° Southwest 460 529 40,000  Level FlightAware Transoceanic
12:09AM 39.2610 160.5598 239° Southwest 460 529 40,000  Level FlightAware Transoceanic
12:10AM 39.1960 160.4195 239° Southwest 460 529 40,000  Level FlightAware Transoceanic
12:11AM 39.1308 160.2794 239° Southwest 460 529 40,000  Level FlightAware Transoceanic
12:12AM 39.0655 160.1396 239° Southwest 460 529 40,000  Level FlightAware Transoceanic
12:13AM 39.0000 160.0000 259° West 460 529 40,000  Level FlightAware Transoceanic
12:14AM 38.9754 159.8398 259° West 460 529 40,000  Level FlightAware Transoceanic
12:15AM 38.9506 159.6796 259° West 460 529 40,000  Level FlightAware Transoceanic
12:16AM 38.9255 159.5196 259° West 460 529 40,000  Level FlightAware Transoceanic
12:17AM 38.9003 159.3597 258° West 460 529 40,000  Level FlightAware Transoceanic
12:18AM 38.8748 159.1999 258° West 460 529 40,000  Level FlightAware Transoceanic
12:19AM 38.8491 159.0403 258° West 460 529 40,000  Level FlightAware Transoceanic
12:20AM 38.8232 158.8807 258° West 460 529 40,000  Level FlightAware Transoceanic
12:21AM 38.7971 158.7213 258° West 460 529 40,000  Level FlightAware Transoceanic
12:22AM 38.7707 158.5620 258° West 460 529 40,000  Level FlightAware Transoceanic
12:23AM 38.7442 158.4028 258° West 460 529 40,000  Level FlightAware Transoceanic
12:24AM 38.7174 158.2437 258° West 460 529 40,000  Level FlightAware Transoceanic
12:25AM 38.6904 158.0847 258° West 460 529 40,000  Level FlightAware Transoceanic
12:26AM 38.6632 157.9259 258° West 460 529 40,000  Level FlightAware Transoceanic
12:27AM 38.6358 157.7671 257° West 460 529 40,000  Level FlightAware Transoceanic
12:28AM 38.6082 157.6085 257° West 460 529 40,000  Level FlightAware Transoceanic
12:29AM 38.5803 157.4500 257° West 460 529 40,000  Level FlightAware Transoceanic
12:30AM 38.5523 157.2917 257° West 460 529 40,000  Level FlightAware Transoceanic
12:31AM 38.5240 157.1335 257° West 460 529 40,000  Level FlightAware Transoceanic
12:32AM 38.4955 156.9754 257° West 460 529 40,000  Level FlightAware Transoceanic
12:33AM 38.4668 156.8174 257° West 460 529 40,000  Level FlightAware Transoceanic
12:34AM 38.4379 156.6595 257° West 460 529 40,000  Level FlightAware Transoceanic
12:35AM 38.4088 156.5018 257° West 460 529 40,000  Level FlightAware Transoceanic
12:36AM 38.3794 156.3442 257° West 460 529 40,000  Level FlightAware Transoceanic
12:37AM 38.3499 156.1867 256° West 460 529 40,000  Level FlightAware Transoceanic
12:38AM 38.3201 156.0294 256° West 460 529 40,000  Level FlightAware Transoceanic
12:39AM 38.2902 155.8722 256° West 460 529 40,000  Level FlightAware Transoceanic
12:40AM 38.2600 155.7151 256° West 460 529 40,000  Level FlightAware Transoceanic
12:41AM 38.2296 155.5581 256° West 460 529 40,000  Level FlightAware Transoceanic
12:42AM 38.1990 155.4013 256° West 460 529 40,000  Level FlightAware Transoceanic
12:43AM 38.1682 155.2446 256° West 460 529 40,000  Level FlightAware Transoceanic
12:44AM 38.1372 155.0881 256° West 460 529 40,000  Level FlightAware Transoceanic
12:45AM 38.1060 154.9316 256° West 460 529 40,000  Level FlightAware Transoceanic
12:46AM 38.0746 154.7753 256° West 460 529 40,000  Level FlightAware Transoceanic
12:47AM 38.0429 154.6192 256° West 460 529 40,000  Level FlightAware Transoceanic
12:48AM 38.0111 154.4632 255° West 460 529 40,000  Level FlightAware Transoceanic
12:49AM 37.9791 154.3073 255° West 460 529 40,000  Level FlightAware Transoceanic
12:50AM 37.9468 154.1516 255° West 460 529 40,000  Level FlightAware Transoceanic
12:51AM 37.9144 153.9959 255° West 460 529 40,000  Level FlightAware Transoceanic
12:52AM 37.8817 153.8405 255° West 460 529 40,000  Level FlightAware Transoceanic
12:53AM 37.8489 153.6851 255° West 460 529 40,000  Level FlightAware Transoceanic
12:54AM 37.8158 153.5299 255° West 460 529 40,000  Level FlightAware Transoceanic
12:55AM 37.7825 153.3749 255° West 460 529 40,000  Level FlightAware Transoceanic
12:56AM 37.7490 153.2200 255° West 460 529 40,000  Level FlightAware Transoceanic
12:57AM 37.7154 153.0652 255° West 460 529 40,000  Level FlightAware Transoceanic
12:58AM 37.6815 152.9106 254° West 460 529 40,000  Level FlightAware Transoceanic
12:59AM 37.6474 152.7561 254° West 460 529 40,000  Level FlightAware Transoceanic
01:00AM 37.6131 152.6017 254° West 460 529 40,000  Level FlightAware Transoceanic
01:01AM 37.5787 152.4475 254° West 460 529 40,000  Level FlightAware Transoceanic
01:02AM 37.5440 152.2935 254° West 460 529 40,000  Level FlightAware Transoceanic
01:03AM 37.5091 152.1395 254° West 460 529 40,000  Level FlightAware Transoceanic
01:04AM 37.4740 151.9857 254° West 460 529 40,000  Level FlightAware Transoceanic
01:05AM 37.4387 151.8321 254° West 460 529 40,000  Level FlightAware Transoceanic
01:06AM 37.4033 151.6786 254° West 460 529 40,000  Level FlightAware Transoceanic
01:07AM 37.3676 151.5253 254° West 460 529 40,000  Level FlightAware Transoceanic
01:08AM 37.3317 151.3721 254° West 460 529 40,000  Level FlightAware Transoceanic
01:09AM 37.2956 151.2191 253° West 460 529 40,000  Level FlightAware Transoceanic
01:10AM 37.2594 151.0661 253° West 460 529 40,000  Level FlightAware Transoceanic
01:11AM 37.2229 150.9134 253° West 460 529 40,000  Level FlightAware Transoceanic
01:12AM 37.1862 150.7608 253° West 460 529 40,000  Level FlightAware Transoceanic
01:13AM 37.1494 150.6083 253° West 460 529 40,000  Level FlightAware Transoceanic
01:14AM 37.1123 150.4560 253° West 460 529 40,000  Level FlightAware Transoceanic
01:15AM 37.0751 150.3039 253° West 460 529 40,000  Level FlightAware Transoceanic
01:16AM 37.0376 150.1519 253° West 460 529 40,000  Level FlightAware Transoceanic
01:17AM 37.0014 150.0055 253° West  Level FlightAware Approximate
01:18AM 36.9648 149.8592 253° West  Level FlightAware Approximate
01:19AM 36.9901 149.8587 265° West  Level FlightAware Approximate
01:20AM 36.9792 149.7061 265° West  Level FlightAware Approximate
01:21AM 36.9681 149.5536 265° West  Level FlightAware Approximate
01:22AM 36.9568 149.4011 265° West  Level FlightAware Approximate
01:23AM 36.9453 149.2486 265° West  Level FlightAware Approximate
01:24AM 36.9337 149.0962 265° West  Level FlightAware Approximate
01:25AM 36.9218 148.9438 264° West  Level FlightAware Approximate
01:26AM 36.9097 148.7914 264° West  Level FlightAware Approximate
01:27AM 36.8975 148.6392 264° West  Level FlightAware Approximate
01:28AM 36.8850 148.4869 264° West  Level FlightAware Approximate
01:29AM 36.8562 148.3384 255° West  Level FlightAware Approximate
01:30AM 36.8248 148.1906 255° West  Level FlightAware Approximate
01:31AM 36.7931 148.0430 255° West  Level FlightAware Approximate
01:32AM 36.7613 147.8954 255° West  Level FlightAware Approximate
01:33AM 36.7293 147.7480 255° West  Level FlightAware Approximate
01:34AM 36.6971 147.6007 255° West  Level FlightAware Approximate
01:35AM 36.6648 147.4535 255° West  Level FlightAware Approximate
01:36AM 36.6322 147.3065 255° West  Level FlightAware Approximate
01:37AM 36.5995 147.1595 255° West  Level FlightAware Approximate
01:38AM 36.5666 147.0128 254° West  Level FlightAware Approximate
01:39AM 36.5335 146.8661 254° West  Level FlightAware Approximate
01:40AM 36.5002 146.7195 254° West  Level FlightAware Approximate
01:41AM 36.4668 146.5731 254° West  Level FlightAware Approximate
01:42AM 36.4332 146.4268 254° West  Level FlightAware Approximate
01:43AM 36.3990 146.2803 248° West  Level FlightAware Approximate
01:44AM 36.3535 146.1387 248° West  Level FlightAware Approximate
01:45AM 36.3078 145.9973 248° West  Level FlightAware Approximate
01:46AM 36.2619 145.8561 248° West  Level FlightAware Approximate
01:47AM 36.2159 145.7151 248° West  Level FlightAware Approximate
01:48AM 36.1763 145.5715 253° West  Level FlightAware Approximate
01:49AM 36.1434 145.4254 259° West  Level FlightAware Approximate
01:50AM 36.1195 145.2766 259° West  Level FlightAware Approximate
01:51AM 36.0955 145.1278 259° West  Level FlightAware Approximate
01:52AM 36.0712 144.9792 259° West  Level FlightAware Approximate
01:53AM 36.0467 144.8306 259° West  Level FlightAware Approximate
01:54AM 36.0221 144.6821 258° West  Level FlightAware Approximate
01:55AM 35.9973 144.5337 258° West  Level FlightAware Approximate
01:56AM 35.9723 144.3855 258° West  Level FlightAware Approximate
01:57AM 35.9472 144.2373 258° West  Level FlightAware Approximate
01:58AM 35.9218 144.0892 258° West  Level FlightAware Approximate
01:59AM 35.8963 143.9412 258° West  Level FlightAware Approximate
02:00AM 35.8834 143.7916 270° West  Level FlightAware Approximate
02:01AM 35.8848 143.6404 273° West  Level FlightAware Approximate
02:02AM 35.8900 143.4892 272° West  Level FlightAware Approximate
02:03AM 35.8951 143.3380 272° West  Level FlightAware Approximate
02:04AM 35.8999 143.1869 272° West  Level FlightAware Approximate
02:05AM 35.9001 143.0356 270° West  Level FlightAware Approximate
02:06AM 35.9000 142.8843 270° West  Level FlightAware Approximate
02:07AM 35.9000 142.7330 270° West  Level FlightAware Approximate
02:08AM 35.9001 142.5816 270° West  Level FlightAware Approximate
02:09AM 35.9000 142.4303 270° West  Level FlightAware Approximate
02:10AM 35.9001 142.2790 270° West  Level FlightAware Approximate
02:11AM 35.9001 142.1307 270° West  Level FlightAware Approximate
02:12AM 35.9001 141.9823 270° West  Level FlightAware Approximate
02:13AM 35.9001 141.8340 270° West  Level FlightAware Approximate
02:14AM 35.9000 141.6856 270° West  Level FlightAware Approximate
02:15AM 35.8959 141.5374 265° West  Level FlightAware Approximate
02:16AM 35.8860 141.3896 265° West  Level FlightAware Approximate
02:17AM 35.8657 141.2436 258° West  Level FlightAware Approximate
02:18AM 35.8435 141.0979 261° West  Level FlightAware Approximate
02:19AM 35.8252 140.9514 261° West  Level FlightAware Approximate
02:20AM 35.8135 140.8043 262° West  Level FlightAware Approximate
02:21AM 35.7957 140.6578 258° West  Level FlightAware Approximate
02:22AM 35.7714 140.5119 258° West  Level FlightAware Approximate
02:23AM 35.7500 140.3833 253° West  Level FlightAware Approximate
02:24AM 35.7647 140.3864 253° West  Level Estimated
02:25AM 35.7647 140.3864 253° West  Level Estimated
02:26AM 35.7647 140.3864 253° West  Level Estimated
02:27AM 35.7647 140.3864 253° West  Level Estimated
02:28AM 35.7647 140.3864 253° West  Level Estimated
02:29AM 35.7647 140.3864 253° West  Level Estimated
02:30AM 35.7647 140.3864 253° West  Level Estimated
02:31AM 35.7647 140.3864 253° West  Level Estimated
02:32AM 35.7647 140.3864 253° West  Level Estimated
02:33AM 35.7647 140.3864 253° West  Level Estimated
02:34AM 35.7647 140.3864 253° West  Level Estimated
02:35AM 35.7647 140.3864 253° West  Level Estimated
02:36AM 35.7647 140.3864 253° West  Level Estimated
02:37AM 35.7647 140.3864 253° West  Level Estimated
02:38AM 35.7647 140.3864 253° West  Level Estimated
02:39AM 35.7647 140.3864 253° West  Level Estimated